Terminal Aerodrome Forecast
Issued by NWS Mt. Holly, NJ

Home | Current Version | Previous Version | Text Only | Print | Product List | Glossary On
Versions: 1 2 3 4 5 6 7 8 9 10 11 12 13 14 15
000
FTUS41 KPHI 292327
TAFILG
TAF
KILG 292327Z 3000/3024 17008KT P6SM -SHRA FEW020 OVC050
      TEMPO 3000/3003 3SM -SHRA BR SCT020 OVC035
     FM300300 19005KT 4SM -SHRA BR BKN015 OVC050
      TEMPO 3006/3010 2SM +SHRA OVC010
     FM301000 23005KT 2SM SHRA BR OVC008
     FM301400 24005KT 2SM -SHRA BR OVC010
     FM301800 19005KT 6SM BR VCSH OVC015=

USA.gov is the U.S. government's official web portal to all federal, state and local government web resources and services.